Darstellungsparameter: Aktuell verwendete Einstellungen:
Skalierung der Graphiken ... ?
xyx+y,   Skalierungsfaktor:      Skalierung: Modus: x, Faktor: 1
Darstellungszeitraum ... ?
Vom - - bis: - -   Zeitraum: 28.09.2021 - 28.09.2021
Min/Max/Avg-Anzeige ... ?
Zeige MMA aktuell
Zeige MMA Monat
Zeige MMA alles
Zeige --A aktuell
Zeige --A Monat
Zeige --A alles
Keine MMA-Anzeige
MMA:
Keine MMA-Graphiken
MMA-Basis: 28.09.2021 - 28.09.2021
Quicknavigation für Darstellung... ?
Tage:      1T, 2T, 3T, 5T -1T -2T -3T -5T +1T +2T +3T +5T
Wochen: 1W, 2W, 3W -1W -2W -3W +1W +2W +3W
Monate: 1M, 3M, 6M -1M -3M -6M +1M +3M +6M
Jahre:    1J, 3J, 5J, 10J -1J -3J -5J -10J +1J +3J +5J +10J
Nutze für die Darstellung ... ?
Originaldaten oder Mittelwerte auf ...
Stundenbasis Tagesbasis Wochenbasis
Monatsbasis Jahresbasis      Datenbasis: Original-Daten
Darstellen als:
Statistik (Auto) Statistik J:M      Darstellung:
Zur Graphik,    zurück zur Übersicht aller Sensoren.
 
Tabellarische Datenbersicht: ?
 
Sensor: Nr:Datum:Temp:Feuchte:Taupunkt:
Aussen-T/F 1 28-09-2021 00:00:00 12.4 C 95 % 11.62 C
2 28-09-2021 00:05:00 12.3 C 94 % 11.36 C
3 28-09-2021 00:10:00 12.2 C 95 % 11.42 C
4 28-09-2021 00:15:00 12.1 C 95 % 11.32 C
5 28-09-2021 00:20:00 12 C 94 % 11.07 C
6 28-09-2021 00:25:00 11.9 C 95 % 11.13 C
7 28-09-2021 00:30:00 11.9 C 95 % 11.13 C
8 28-09-2021 00:35:00 11.8 C 95 % 11.03 C
9 28-09-2021 00:40:00 11.8 C 95 % 11.03 C
10 28-09-2021 00:45:00 11.7 C 95 % 10.93 C
11 28-09-2021 00:50:00 11.7 C 95 % 10.93 C
12 28-09-2021 00:55:00 11.7 C 95 % 10.93 C
13 28-09-2021 01:00:00 11.7 C 95 % 10.93 C
14 28-09-2021 01:05:00 11.7 C 95 % 10.93 C
15 28-09-2021 01:10:00 11.7 C 95 % 10.93 C
16 28-09-2021 01:15:00 11.7 C 95 % 10.93 C
17 28-09-2021 01:20:00 11.7 C 95 % 10.93 C
18 28-09-2021 01:25:00 11.7 C 95 % 10.93 C
19 28-09-2021 01:30:00 11.6 C 95 % 10.83 C
20 28-09-2021 01:35:00 11.6 C 95 % 10.83 C
21 28-09-2021 01:40:00 11.5 C 95 % 10.73 C
22 28-09-2021 01:45:00 11.4 C 95 % 10.63 C
23 28-09-2021 01:50:00 11.4 C 95 % 10.63 C
24 28-09-2021 01:55:00 11.4 C 95 % 10.63 C
25 28-09-2021 02:00:00 11.3 C 95 % 10.53 C
Sensor: Nr:Datum:Temp:Feuchte:Taupunkt:
Aussen-T/F 26 28-09-2021 02:05:00 11.3 C 95 % 10.53 C
27 28-09-2021 02:10:00 11.3 C 96 % 10.69 C
28 28-09-2021 02:15:00 11.3 C 96 % 10.69 C
29 28-09-2021 02:20:00 11.2 C 96 % 10.59 C
30 28-09-2021 02:25:00 11.2 C 96 % 10.59 C
31 28-09-2021 02:30:00 11.2 C 96 % 10.59 C
32 28-09-2021 02:35:00 11.2 C 96 % 10.59 C
33 28-09-2021 02:40:00 11.2 C 96 % 10.59 C
34 28-09-2021 02:45:00 11.2 C 96 % 10.59 C
35 28-09-2021 02:50:00 11.2 C 96 % 10.59 C
36 28-09-2021 02:55:00 11.2 C 96 % 10.59 C
37 28-09-2021 03:00:00 11.2 C 96 % 10.59 C
38 28-09-2021 03:05:00 11.2 C 96 % 10.59 C
39 28-09-2021 03:10:00 11.1 C 96 % 10.49 C
40 28-09-2021 03:15:00 11.1 C 96 % 10.49 C
41 28-09-2021 03:20:00 11.1 C 96 % 10.49 C
42 28-09-2021 03:25:00 11.1 C 96 % 10.49 C
43 28-09-2021 03:30:00 11.1 C 96 % 10.49 C
44 28-09-2021 03:35:00 11.1 C 96 % 10.49 C
45 28-09-2021 03:40:00 11.1 C 96 % 10.49 C
46 28-09-2021 03:45:00 11.1 C 96 % 10.49 C
47 28-09-2021 03:50:00 11 C 96 % 10.39 C
48 28-09-2021 03:55:00 10.9 C 96 % 10.29 C
49 28-09-2021 04:00:00 10.9 C 96 % 10.29 C
50 28-09-2021 04:05:00 10.9 C 96 % 10.29 C
Sensor: Nr:Datum:Temp:Feuchte:Taupunkt:
Aussen-T/F 51 28-09-2021 04:10:00 10.9 C 96 % 10.29 C
52 28-09-2021 04:15:00 10.9 C 96 % 10.29 C
53 28-09-2021 04:20:00 10.9 C 96 % 10.29 C
54 28-09-2021 04:25:00 10.9 C 96 % 10.29 C
55 28-09-2021 04:30:00 10.9 C 96 % 10.29 C
56 28-09-2021 04:35:00 10.9 C 96 % 10.29 C
57 28-09-2021 04:40:00 10.9 C 96 % 10.29 C
58 28-09-2021 04:45:00 11.1 C 96 % 10.49 C
59 28-09-2021 04:50:00 11.1 C 96 % 10.49 C
60 28-09-2021 04:55:00 11.1 C 97 % 10.64 C
61 28-09-2021 05:00:00 11.2 C 96 % 10.59 C
62 28-09-2021 05:05:00 11.2 C 96 % 10.59 C
63 28-09-2021 05:10:00 11.1 C 96 % 10.49 C
64 28-09-2021 05:15:00 11 C 96 % 10.39 C
65 28-09-2021 05:20:00 10.9 C 96 % 10.29 C
66 28-09-2021 05:25:00 10.8 C 96 % 10.19 C
67 28-09-2021 05:30:00 10.8 C 96 % 10.19 C
68 28-09-2021 05:35:00 10.7 C 96 % 10.09 C
69 28-09-2021 05:40:00 10.6 C 96 % 9.99 C
70 28-09-2021 05:45:00 10.6 C 96 % 9.99 C
71 28-09-2021 05:50:00 10.5 C 96 % 9.89 C
72 28-09-2021 05:55:00 10.4 C 96 % 9.79 C
73 28-09-2021 06:00:00 10.5 C 96 % 9.89 C
74 28-09-2021 06:05:00 10.6 C 96 % 9.99 C
75 28-09-2021 06:10:00 10.6 C 96 % 9.99 C
Sensor: Nr:Datum:Temp:Feuchte:Taupunkt:
Aussen-T/F 76 28-09-2021 06:15:00 10.6 C 96 % 9.99 C
77 28-09-2021 06:20:00 10.6 C 96 % 9.99 C
78 28-09-2021 06:25:00 10.6 C 96 % 9.99 C
79 28-09-2021 06:30:00 10.4 C 96 % 9.79 C
80 28-09-2021 06:35:00 10.4 C 96 % 9.79 C
81 28-09-2021 06:40:00 10.3 C 96 % 9.69 C
82 28-09-2021 06:45:00 10.2 C 96 % 9.59 C
83 28-09-2021 06:50:00 10.1 C 96 % 9.49 C
84 28-09-2021 06:55:00 9.9 C 96 % 9.29 C
85 28-09-2021 07:00:00 9.8 C 96 % 9.19 C
86 28-09-2021 07:05:00 9.8 C 96 % 9.19 C
87 28-09-2021 07:10:00 9.7 C 96 % 9.09 C
88 28-09-2021 07:15:00 9.7 C 96 % 9.09 C
89 28-09-2021 07:20:00 9.7 C 96 % 9.09 C
90 28-09-2021 07:25:00 9.6 C 96 % 8.99 C
91 28-09-2021 07:30:00 9.6 C 96 % 8.99 C
92 28-09-2021 07:35:00 9.6 C 96 % 8.99 C
93 28-09-2021 07:40:00 9.6 C 96 % 8.99 C
94 28-09-2021 07:45:00 9.6 C 96 % 8.99 C
95 28-09-2021 07:50:00 9.6 C 96 % 8.99 C
96 28-09-2021 07:55:00 9.6 C 96 % 8.99 C
97 28-09-2021 08:00:00 9.6 C 96 % 8.99 C
98 28-09-2021 08:05:00 9.6 C 96 % 8.99 C
99 28-09-2021 08:10:00 9.6 C 96 % 8.99 C
100 28-09-2021 08:15:00 9.6 C 96 % 8.99 C
Sensor: Nr:Datum:Temp:Feuchte:Taupunkt:
Aussen-T/F 101 28-09-2021 08:20:00 9.6 C 96 % 8.99 C
102 28-09-2021 08:25:00 9.7 C 97 % 9.25 C
103 28-09-2021 08:30:00 9.7 C 97 % 9.25 C
104 28-09-2021 08:35:00 9.7 C 97 % 9.25 C
105 28-09-2021 08:40:00 9.8 C 97 % 9.35 C
106 28-09-2021 08:45:00 9.8 C 97 % 9.35 C
107 28-09-2021 08:50:00 9.9 C 97 % 9.45 C
108 28-09-2021 08:55:00 9.9 C 97 % 9.45 C
109 28-09-2021 09:00:00 10 C 97 % 9.55 C
110 28-09-2021 09:05:00 10.1 C 97 % 9.65 C
111 28-09-2021 09:10:00 10.2 C 97 % 9.75 C
112 28-09-2021 09:15:00 10.3 C 97 % 9.85 C
113 28-09-2021 09:20:00 10.5 C 97 % 10.04 C
114 28-09-2021 09:25:00 10.8 C 97 % 10.34 C
115 28-09-2021 09:30:00 11.1 C 97 % 10.64 C
116 28-09-2021 09:35:00 11.3 C 97 % 10.84 C
117 28-09-2021 09:40:00 11.4 C 97 % 10.94 C
118 28-09-2021 09:45:00 11.6 C 97 % 11.14 C
119 28-09-2021 09:50:00 11.8 C 97 % 11.34 C
120 28-09-2021 09:55:00 11.8 C 97 % 11.34 C
121 28-09-2021 10:00:00 11.8 C 97 % 11.34 C
122 28-09-2021 10:05:00 11.8 C 97 % 11.34 C
123 28-09-2021 10:10:00 11.8 C 97 % 11.34 C
124 28-09-2021 10:15:00 11.9 C 97 % 11.44 C
125 28-09-2021 10:20:00 11.9 C 97 % 11.44 C
Sensor: Nr:Datum:Temp:Feuchte:Taupunkt:
Aussen-T/F 126 28-09-2021 10:25:00 12 C 97 % 11.54 C
127 28-09-2021 10:30:00 12.1 C 97 % 11.64 C
128 28-09-2021 10:35:00 12.1 C 97 % 11.64 C
129 28-09-2021 10:40:00 12.2 C 96 % 11.58 C
130 28-09-2021 10:45:00 12.2 C 96 % 11.58 C
131 28-09-2021 10:50:00 12.3 C 96 % 11.68 C
132 28-09-2021 10:55:00 12.4 C 95 % 11.62 C
133 28-09-2021 11:00:00 12.6 C 95 % 11.82 C
134 28-09-2021 11:05:00 12.6 C 95 % 11.82 C
135 28-09-2021 11:10:00 12.7 C 95 % 11.92 C
136 28-09-2021 11:15:00 12.7 C 94 % 11.76 C
137 28-09-2021 11:20:00 12.7 C 93 % 11.6 C
138 28-09-2021 11:25:00 12.8 C 93 % 11.7 C
139 28-09-2021 11:30:00 13 C 93 % 11.9 C
140 28-09-2021 11:35:00 13.1 C 92 % 11.83 C
141 28-09-2021 11:40:00 13.3 C 93 % 12.19 C
142 28-09-2021 11:45:00 13.3 C 92 % 12.03 C
143 28-09-2021 11:50:00 13.4 C 92 % 12.13 C
144 28-09-2021 11:55:00 13.5 C 91 % 12.06 C
145 28-09-2021 12:00:00 13.6 C 91 % 12.16 C
146 28-09-2021 12:05:00 13.7 C 91 % 12.26 C
147 28-09-2021 12:10:00 13.8 C 89 % 12.02 C
148 28-09-2021 12:15:00 13.8 C 90 % 12.19 C
149 28-09-2021 12:20:00 14 C 90 % 12.39 C
150 28-09-2021 12:25:00 14.2 C 89 % 12.41 C
Sensor: Nr:Datum:Temp:Feuchte:Taupunkt:
Aussen-T/F 151 28-09-2021 12:30:00 14.2 C 88 % 12.24 C
152 28-09-2021 12:35:00 14.3 C 88 % 12.34 C
153 28-09-2021 12:40:00 14.3 C 88 % 12.34 C
154 28-09-2021 12:45:00 14.4 C 88 % 12.44 C
155 28-09-2021 12:50:00 14.6 C 88 % 12.64 C
156 28-09-2021 12:55:00 14.6 C 87 % 12.46 C
157 28-09-2021 13:00:00 14.7 C 87 % 12.56 C
158 28-09-2021 13:05:00 14.7 C 86 % 12.38 C
159 28-09-2021 13:10:00 14.7 C 86 % 12.38 C
160 28-09-2021 13:15:00 14.7 C 86 % 12.38 C
161 28-09-2021 13:20:00 14.8 C 87 % 12.66 C
162 28-09-2021 13:25:00 14.8 C 87 % 12.66 C
163 28-09-2021 13:30:00 14.9 C 86 % 12.58 C
164 28-09-2021 13:35:00 15 C 87 % 12.86 C
165 28-09-2021 13:40:00 15.1 C 86 % 12.78 C
166 28-09-2021 13:45:00 15.2 C 86 % 12.88 C
167 28-09-2021 13:50:00 15.3 C 86 % 12.97 C
168 28-09-2021 13:55:00 15.3 C 86 % 12.97 C
169 28-09-2021 14:00:00 15.4 C 85 % 12.89 C
170 28-09-2021 14:05:00 15.6 C 85 % 13.09 C
171 28-09-2021 14:10:00 15.7 C 85 % 13.19 C
172 28-09-2021 14:15:00 15.8 C 83 % 12.92 C
173 28-09-2021 14:20:00 15.9 C 82 % 12.83 C
174 28-09-2021 14:25:00 16.1 C 83 % 13.21 C
175 28-09-2021 14:30:00 16.3 C 82 % 13.22 C
Sensor: Nr:Datum:Temp:Feuchte:Taupunkt:
Aussen-T/F 176 28-09-2021 14:35:00 16.5 C 80 % 13.04 C
177 28-09-2021 14:40:00 16.7 C 79 % 13.04 C
178 28-09-2021 14:45:00 16.9 C 77 % 12.84 C
179 28-09-2021 14:50:00 17 C 76 % 12.74 C
180 28-09-2021 14:55:00 17.1 C 77 % 13.04 C
181 28-09-2021 15:00:00 17.1 C 75 % 12.64 C
182 28-09-2021 15:05:00 17.1 C 76 % 12.84 C
183 28-09-2021 15:10:00 17.1 C 75 % 12.64 C
184 28-09-2021 15:15:00 17 C 77 % 12.94 C
185 28-09-2021 15:20:00 17.1 C 77 % 13.04 C
186 28-09-2021 15:25:00 17.1 C 75 % 12.64 C
187 28-09-2021 15:30:00 17 C 74 % 12.34 C
188 28-09-2021 15:35:00 16.9 C 74 % 12.24 C
189 28-09-2021 15:40:00 16.9 C 76 % 12.65 C
190 28-09-2021 15:45:00 16.9 C 76 % 12.65 C
191 28-09-2021 15:50:00 16.9 C 77 % 12.84 C
192 28-09-2021 15:55:00 16.9 C 76 % 12.65 C
193 28-09-2021 16:00:00 17 C 76 % 12.74 C
194 28-09-2021 16:05:00 17.1 C 76 % 12.84 C
195 28-09-2021 16:10:00 17.1 C 74 % 12.43 C
196 28-09-2021 16:15:00 17.1 C 75 % 12.64 C
197 28-09-2021 16:20:00 17.1 C 72 % 12.02 C
198 28-09-2021 16:25:00 17.1 C 76 % 12.84 C
199 28-09-2021 16:30:00 17.1 C 75 % 12.64 C
200 28-09-2021 16:35:00 17.1 C 72 % 12.02 C
Sensor: Nr:Datum:Temp:Feuchte:Taupunkt:
Aussen-T/F 201 28-09-2021 16:40:00 17.2 C 74 % 12.53 C
202 28-09-2021 16:45:00 17.2 C 73 % 12.32 C
203 28-09-2021 16:50:00 17.3 C 78 % 13.43 C
204 28-09-2021 16:55:00 17.4 C 79 % 13.72 C
205 28-09-2021 17:00:00 17.3 C 81 % 14.01 C
206 28-09-2021 17:05:00 17.3 C 80 % 13.82 C
207 28-09-2021 17:10:00 17.4 C 82 % 14.3 C
208 28-09-2021 17:15:00 17.5 C 82 % 14.39 C
209 28-09-2021 17:20:00 17.6 C 82 % 14.49 C
210 28-09-2021 17:25:00 17.5 C 82 % 14.39 C
211 28-09-2021 17:30:00 17.3 C 82 % 14.2 C
212 28-09-2021 17:35:00 17.1 C 82 % 14 C
213 28-09-2021 17:40:00 16.9 C 82 % 13.81 C
214 28-09-2021 17:45:00 16.7 C 82 % 13.61 C
215 28-09-2021 17:50:00 16.4 C 82 % 13.32 C
216 28-09-2021 17:55:00 16.2 C 83 % 13.31 C
217 28-09-2021 18:00:00 16 C 83 % 13.12 C
218 28-09-2021 18:05:00 15.7 C 83 % 12.82 C
219 28-09-2021 18:10:00 15.5 C 84 % 12.81 C
220 28-09-2021 18:15:00 15.3 C 84 % 12.61 C
221 28-09-2021 18:20:00 15.1 C 85 % 12.6 C
222 28-09-2021 18:25:00 14.9 C 85 % 12.4 C
223 28-09-2021 18:30:00 14.8 C 85 % 12.3 C
224 28-09-2021 18:35:00 14.7 C 86 % 12.38 C
225 28-09-2021 18:40:00 14.5 C 86 % 12.19 C
Sensor: Nr:Datum:Temp:Feuchte:Taupunkt:
Aussen-T/F 226 28-09-2021 18:45:00 14.4 C 87 % 12.27 C
227 28-09-2021 18:50:00 14.2 C 87 % 12.07 C
228 28-09-2021 18:55:00 14.1 C 87 % 11.97 C
229 28-09-2021 19:00:00 13.9 C 88 % 11.95 C
230 28-09-2021 19:05:00 13.9 C 88 % 11.95 C
231 28-09-2021 19:10:00 13.8 C 88 % 11.85 C
232 28-09-2021 19:15:00 13.7 C 88 % 11.75 C
233 28-09-2021 19:20:00 13.6 C 88 % 11.65 C
234 28-09-2021 19:25:00 13.4 C 89 % 11.63 C
235 28-09-2021 19:30:00 13.3 C 89 % 11.53 C
236 28-09-2021 19:35:00 13.2 C 89 % 11.43 C
237 28-09-2021 19:40:00 13.1 C 89 % 11.33 C
238 28-09-2021 19:45:00 12.9 C 90 % 11.3 C
239 28-09-2021 19:50:00 12.9 C 90 % 11.3 C
240 28-09-2021 19:55:00 12.8 C 90 % 11.2 C
241 28-09-2021 20:00:00 12.8 C 90 % 11.2 C
242 28-09-2021 20:05:00 12.7 C 90 % 11.1 C
243 28-09-2021 20:10:00 12.7 C 91 % 11.27 C
244 28-09-2021 20:15:00 12.7 C 91 % 11.27 C
245 28-09-2021 20:20:00 12.6 C 91 % 11.17 C
246 28-09-2021 20:25:00 12.6 C 92 % 11.34 C
247 28-09-2021 20:30:00 12.6 C 91 % 11.17 C
248 28-09-2021 20:35:00 12.5 C 92 % 11.24 C
249 28-09-2021 20:40:00 12.4 C 92 % 11.14 C
250 28-09-2021 20:45:00 12.4 C 92 % 11.14 C
Sensor: Nr:Datum:Temp:Feuchte:Taupunkt:
Aussen-T/F 251 28-09-2021 20:50:00 12.3 C 92 % 11.04 C
252 28-09-2021 20:55:00 12.3 C 92 % 11.04 C
253 28-09-2021 21:00:00 12.2 C 92 % 10.94 C
254 28-09-2021 21:05:00 12.2 C 92 % 10.94 C
255 28-09-2021 21:10:00 12.1 C 92 % 10.84 C
256 28-09-2021 21:15:00 12 C 92 % 10.74 C
257 28-09-2021 21:20:00 11.9 C 92 % 10.64 C
258 28-09-2021 21:25:00 11.8 C 92 % 10.54 C
259 28-09-2021 21:30:00 11.8 C 92 % 10.54 C
260 28-09-2021 21:35:00 11.7 C 93 % 10.61 C
261 28-09-2021 21:40:00 11.7 C 93 % 10.61 C
262 28-09-2021 21:45:00 11.6 C 93 % 10.51 C
263 28-09-2021 21:50:00 11.6 C 93 % 10.51 C
264 28-09-2021 21:55:00 11.6 C 93 % 10.51 C
265 28-09-2021 22:00:00 11.5 C 93 % 10.41 C
266 28-09-2021 22:05:00 11.5 C 93 % 10.41 C
267 28-09-2021 22:10:00 11.5 C 93 % 10.41 C
268 28-09-2021 22:15:00 11.4 C 93 % 10.31 C
269 28-09-2021 22:20:00 11.4 C 93 % 10.31 C
270 28-09-2021 22:25:00 11.4 C 93 % 10.31 C
271 28-09-2021 22:30:00 11.4 C 94 % 10.47 C
272 28-09-2021 22:35:00 11.4 C 94 % 10.47 C
273 28-09-2021 22:40:00 11.3 C 94 % 10.37 C
274 28-09-2021 22:45:00 11.3 C 94 % 10.37 C
275 28-09-2021 22:50:00 11.3 C 94 % 10.37 C
Sensor: Nr:Datum:Temp:Feuchte:Taupunkt:
Aussen-T/F 276 28-09-2021 22:55:00 11.2 C 94 % 10.27 C
277 28-09-2021 23:00:00 11.2 C 94 % 10.27 C
278 28-09-2021 23:05:00 11.2 C 94 % 10.27 C
279 28-09-2021 23:10:00 11.2 C 94 % 10.27 C
280 28-09-2021 23:15:00 11.1 C 94 % 10.17 C
281 28-09-2021 23:20:00 11.1 C 94 % 10.17 C
282 28-09-2021 23:25:00 11 C 94 % 10.07 C
283 28-09-2021 23:30:00 10.9 C 94 % 9.97 C
284 28-09-2021 23:35:00 10.8 C 94 % 9.87 C
285 28-09-2021 23:40:00 10.8 C 94 % 9.87 C
286 28-09-2021 23:45:00 10.7 C 94 % 9.77 C
287 28-09-2021 23:50:00 10.6 C 94 % 9.68 C
288 28-09-2021 23:55:00 10.6 C 94 % 9.68 C

Legende:
   Min
   Max


Maximal/Minimal-Werte vom 28.09.2021 - 28.09.2021

Sensor Min Max Avg
Temp
(Aussen-T/F)
9.6 °C
28-09-2021  07:25:00
17.6 °C
28-09-2021  17:20:00
12.7 °C
Feuchte
(Aussen-T/F)
72 %
28-09-2021  16:20:00
97 %
28-09-2021  04:55:00
90.97 %
Taupunkt
(Aussen-T/F)
8.99 C
28-09-2021  07:25:00
14.49 C
28-09-2021  17:20:00
11.17 C

Die Daten stammen von einer Davis Vantage Pro 2 Wetter-Station und werden unter Linux mit der Software wview2wettercgi und aufbereitet. Alle Angaben erfolgen ohne Gewähr für ihre Vollständigkeit oder Richtigkeit.
Kontakt: Rainer Krienke krienke@uni-koblenz.de . Meine Webseiten an der Uni Koblenz oder privat.
Version: $Revision: 0.78 $